sensor_id;sensor_type;location;lat;lon;timestamp;pressure;altitude;pressure_sealevel;temperature;humidity
32033;BME280;31720;52.638;9.216;2024-03-02T00:01:11;100084.06;;;7.83;100.00
32033;BME280;31720;52.638;9.216;2024-03-02T00:04:12;100081.69;;;7.78;100.00
32033;BME280;31720;52.638;9.216;2024-03-02T00:07:14;100084.31;;;7.78;100.00
32033;BME280;31720;52.638;9.216;2024-03-02T00:10:20;100085.25;;;7.77;100.00
32033;BME280;31720;52.638;9.216;2024-03-02T00:13:23;100087.78;;;7.79;100.00
32033;BME280;31720;52.638;9.216;2024-03-02T00:16:29;100080.91;;;7.76;100.00
32033;BME280;31720;52.638;9.216;2024-03-02T00:19:31;100087.16;;;7.74;100.00
32033;BME280;31720;52.638;9.216;2024-03-02T00:22:35;100087.06;;;7.75;100.00
32033;BME280;31720;52.638;9.216;2024-03-02T00:25:43;100089.78;;;7.74;100.00
32033;BME280;31720;52.638;9.216;2024-03-02T00:28:45;100094.00;;;7.76;100.00
32033;BME280;31720;52.638;9.216;2024-03-02T00:31:46;100091.38;;;7.76;100.00
32033;BME280;31720;52.638;9.216;2024-03-02T00:34:48;100099.22;;;7.76;100.00
32033;BME280;31720;52.638;9.216;2024-03-02T00:37:50;100090.47;;;7.77;100.00
32033;BME280;31720;52.638;9.216;2024-03-02T00:40:52;100089.88;;;7.72;100.00
32033;BME280;31720;52.638;9.216;2024-03-02T00:43:57;100096.09;;;7.70;100.00
32033;BME280;31720;52.638;9.216;2024-03-02T00:46:59;100100.47;;;7.69;100.00
32033;BME280;31720;52.638;9.216;2024-03-02T00:50:01;100096.84;;;7.72;100.00
32033;BME280;31720;52.638;9.216;2024-03-02T00:53:03;100091.94;;;7.66;100.00
32033;BME280;31720;52.638;9.216;2024-03-02T00:56:09;100098.19;;;7.63;100.00
32033;BME280;31720;52.638;9.216;2024-03-02T00:59:10;100094.78;;;7.61;100.00
32033;BME280;31720;52.638;9.216;2024-03-02T01:02:12;100093.16;;;7.58;100.00
32033;BME280;31720;52.638;9.216;2024-03-02T01:05:13;100097.75;;;7.55;100.00
32033;BME280;31720;52.638;9.216;2024-03-02T01:08:15;100078.66;;;7.53;100.00
32033;BME280;31720;52.638;9.216;2024-03-02T01:11:18;100092.88;;;7.47;100.00
32033;BME280;31720;52.638;9.216;2024-03-02T01:14:22;100087.06;;;7.42;100.00
32033;BME280;31720;52.638;9.216;2024-03-02T01:17:23;100083.59;;;7.42;100.00
32033;BME280;31720;52.638;9.216;2024-03-02T01:20:24;100089.66;;;7.42;100.00
32033;BME280;31720;52.638;9.216;2024-03-02T01:23:26;100078.53;;;7.38;100.00
32033;BME280;31720;52.638;9.216;2024-03-02T01:26:28;100076.97;;;7.34;100.00
32033;BME280;31720;52.638;9.216;2024-03-02T01:29:30;100078.66;;;7.35;100.00
32033;BME280;31720;52.638;9.216;2024-03-02T01:32:32;100071.59;;;7.37;100.00
32033;BME280;31720;52.638;9.216;2024-03-02T01:35:33;100068.91;;;7.39;100.00
32033;BME280;31720;52.638;9.216;2024-03-02T01:38:35;100067.31;;;7.36;100.00
32033;BME280;31720;52.638;9.216;2024-03-02T01:41:38;100071.69;;;7.36;100.00
32033;BME280;31720;52.638;9.216;2024-03-02T01:44:39;100060.31;;;7.37;100.00
32033;BME280;31720;52.638;9.216;2024-03-02T01:47:41;100059.47;;;7.36;100.00
32033;BME280;31720;52.638;9.216;2024-03-02T01:50:42;100054.16;;;7.38;100.00
32033;BME280;31720;52.638;9.216;2024-03-02T01:53:44;100054.25;;;7.36;100.00
32033;BME280;31720;52.638;9.216;2024-03-02T01:56:46;100054.25;;;7.36;100.00
32033;BME280;31720;52.638;9.216;2024-03-02T01:59:48;100055.84;;;7.39;100.00
32033;BME280;31720;52.638;9.216;2024-03-02T02:02:51;100047.84;;;7.42;100.00
32033;BME280;31720;52.638;9.216;2024-03-02T02:05:52;100045.84;;;7.47;100.00
32033;BME280;31720;52.638;9.216;2024-03-02T02:08:54;100034.63;;;7.45;100.00
32033;BME280;31720;52.638;9.216;2024-03-02T02:11:57;100040.94;;;7.41;100.00
32033;BME280;31720;52.638;9.216;2024-03-02T02:14:58;100025.72;;;7.32;100.00
32033;BME280;31720;52.638;9.216;2024-03-02T02:18:00;100036.47;;;7.26;100.00
32033;BME280;31720;52.638;9.216;2024-03-02T02:21:02;100030.72;;;7.19;100.00
32033;BME280;31720;52.638;9.216;2024-03-02T02:24:05;100028.34;;;7.15;100.00
32033;BME280;31720;52.638;9.216;2024-03-02T02:27:06;100014.59;;;7.11;100.00
32033;BME280;31720;52.638;9.216;2024-03-02T02:30:08;100024.28;;;7.09;100.00
32033;BME280;31720;52.638;9.216;2024-03-02T02:33:10;100015.75;;;7.05;100.00
32033;BME280;31720;52.638;9.216;2024-03-02T02:36:11;100020.41;;;6.99;100.00
32033;BME280;31720;52.638;9.216;2024-03-02T02:39:16;100018.75;;;6.98;100.00
32033;BME280;31720;52.638;9.216;2024-03-02T02:42:19;100027.66;;;6.94;100.00
32033;BME280;31720;52.638;9.216;2024-03-02T02:45:20;100026.28;;;6.86;100.00
32033;BME280;31720;52.638;9.216;2024-03-02T02:48:22;100032.63;;;6.81;100.00
32033;BME280;31720;52.638;9.216;2024-03-02T02:51:23;100033.88;;;6.74;100.00
32033;BME280;31720;52.638;9.216;2024-03-02T02:54:26;100033.16;;;6.70;100.00
32033;BME280;31720;52.638;9.216;2024-03-02T02:57:28;100022.09;;;6.65;100.00
32033;BME280;31720;52.638;9.216;2024-03-02T03:00:31;100016.25;;;6.60;100.00
32033;BME280;31720;52.638;9.216;2024-03-02T03:03:32;100017.41;;;6.54;100.00
32033;BME280;31720;52.638;9.216;2024-03-02T03:06:34;100011.53;;;6.49;100.00
32033;BME280;31720;52.638;9.216;2024-03-02T03:09:38;100009.03;;;6.48;100.00
32033;BME280;31720;52.638;9.216;2024-03-02T03:12:39;100009.16;;;6.45;100.00
32033;BME280;31720;52.638;9.216;2024-03-02T03:15:43;99999.72;;;6.42;100.00
32033;BME280;31720;52.638;9.216;2024-03-02T03:18:44;99995.56;;;6.38;100.00
32033;BME280;31720;52.638;9.216;2024-03-02T03:21:45;100002.66;;;6.36;100.00
32033;BME280;31720;52.638;9.216;2024-03-02T03:24:48;99999.94;;;6.38;100.00
32033;BME280;31720;52.638;9.216;2024-03-02T03:27:49;100001.72;;;6.37;100.00
32033;BME280;31720;52.638;9.216;2024-03-02T03:30:52;99999.09;;;6.37;100.00
32033;BME280;31720;52.638;9.216;2024-03-02T03:33:54;100002.66;;;6.36;100.00
32033;BME280;31720;52.638;9.216;2024-03-02T03:36:55;99996.50;;;6.37;100.00
32033;BME280;31720;52.638;9.216;2024-03-02T03:39:58;100000.09;;;6.34;100.00
32033;BME280;31720;52.638;9.216;2024-03-02T03:42:59;100002.69;;;6.34;100.00
32033;BME280;31720;52.638;9.216;2024-03-02T03:46:00;100000.03;;;6.36;100.00
32033;BME280;31720;52.638;9.216;2024-03-02T03:49:02;99999.88;;;6.39;100.00
32033;BME280;31720;52.638;9.216;2024-03-02T03:52:04;99989.22;;;6.44;100.00
32033;BME280;31720;52.638;9.216;2024-03-02T03:55:07;99996.06;;;6.46;100.00
32033;BME280;31720;52.638;9.216;2024-03-02T03:58:09;99988.00;;;6.51;100.00
32033;BME280;31720;52.638;9.216;2024-03-02T04:01:10;99988.63;;;6.56;100.00
32033;BME280;31720;52.638;9.216;2024-03-02T04:04:11;99995.06;;;6.66;100.00
32033;BME280;31720;52.638;9.216;2024-03-02T04:07:13;99994.09;;;6.69;100.00
32033;BME280;31720;52.638;9.216;2024-03-02T04:10:16;99993.91;;;6.72;100.00
32033;BME280;31720;52.638;9.216;2024-03-02T04:13:17;99997.47;;;6.71;100.00
32033;BME280;31720;52.638;9.216;2024-03-02T04:16:18;99989.38;;;6.75;100.00
32033;BME280;31720;52.638;9.216;2024-03-02T04:19:20;99992.69;;;6.79;100.00
32033;BME280;31720;52.638;9.216;2024-03-02T04:22:21;99995.22;;;6.80;100.00
32033;BME280;31720;52.638;9.216;2024-03-02T04:25:24;99989.88;;;6.83;100.00
32033;BME280;31720;52.638;9.216;2024-03-02T04:28:25;99984.56;;;6.85;100.00
32033;BME280;31720;52.638;9.216;2024-03-02T04:31:26;99986.56;;;6.80;100.00
32033;BME280;31720;52.638;9.216;2024-03-02T04:34:28;99990.09;;;6.79;100.00
32033;BME280;31720;52.638;9.216;2024-03-02T04:37:29;99989.09;;;6.81;100.00
32033;BME280;31720;52.638;9.216;2024-03-02T04:40:32;99976.06;;;6.81;100.00
32033;BME280;31720;52.638;9.216;2024-03-02T04:43:34;99965.97;;;6.74;100.00
32033;BME280;31720;52.638;9.216;2024-03-02T04:46:35;99965.59;;;6.81;100.00
32033;BME280;31720;52.638;9.216;2024-03-02T04:49:37;99965.19;;;6.89;100.00
32033;BME280;31720;52.638;9.216;2024-03-02T04:52:38;99977.66;;;7.01;100.00
32033;BME280;31720;52.638;9.216;2024-03-02T04:55:41;99986.78;;;7.10;100.00
32033;BME280;31720;52.638;9.216;2024-03-02T04:59:19;99987.53;;;7.12;100.00
32033;BME280;31720;52.638;9.216;2024-03-02T05:02:21;100001.38;;;7.14;100.00
32033;BME280;31720;52.638;9.216;2024-03-02T05:05:22;99997.94;;;7.14;100.00
32033;BME280;31720;52.638;9.216;2024-03-02T05:08:23;99997.09;;;7.13;100.00
32033;BME280;31720;52.638;9.216;2024-03-02T05:11:26;99999.06;;;7.08;100.00
32033;BME280;31720;52.638;9.216;2024-03-02T05:14:48;99998.41;;;7.04;100.00
32033;BME280;31720;52.638;9.216;2024-03-02T05:17:50;100001.00;;;7.04;100.00
32033;BME280;31720;52.638;9.216;2024-03-02T05:20:51;100009.91;;;7.00;100.00
32033;BME280;31720;52.638;9.216;2024-03-02T05:23:52;100011.97;;;6.94;100.00
32033;BME280;31720;52.638;9.216;2024-03-02T05:26:55;100007.69;;;6.93;100.00
32033;BME280;31720;52.638;9.216;2024-03-02T05:29:56;100008.53;;;6.93;100.00
32033;BME280;31720;52.638;9.216;2024-03-02T05:32:58;100014.13;;;6.85;100.00
32033;BME280;31720;52.638;9.216;2024-03-02T05:35:59;100009.91;;;6.83;100.00
32033;BME280;31720;52.638;9.216;2024-03-02T05:39:02;100024.13;;;6.77;100.00
32033;BME280;31720;52.638;9.216;2024-03-02T05:42:06;100029.34;;;6.77;100.00
32033;BME280;31720;52.638;9.216;2024-03-02T05:45:08;100018.97;;;6.76;100.00
32033;BME280;31720;52.638;9.216;2024-03-02T05:48:10;100013.06;;;6.72;100.00
32033;BME280;31720;52.638;9.216;2024-03-02T05:51:12;100018.50;;;6.68;100.00
32033;BME280;31720;52.638;9.216;2024-03-02T05:54:13;100024.81;;;6.64;100.00
32033;BME280;31720;52.638;9.216;2024-03-02T05:57:16;100030.91;;;6.63;100.00
32033;BME280;31720;52.638;9.216;2024-03-02T06:00:32;100028.25;;;6.64;100.00
32033;BME280;31720;52.638;9.216;2024-03-02T06:03:33;100031.00;;;6.61;100.00
32033;BME280;31720;52.638;9.216;2024-03-02T06:06:34;100035.69;;;6.54;100.00
32033;BME280;31720;52.638;9.216;2024-03-02T06:09:36;100029.75;;;6.51;100.00
32033;BME280;31720;52.638;9.216;2024-03-02T06:12:39;100034.28;;;6.47;100.00
32033;BME280;31720;52.638;9.216;2024-03-02T06:15:40;100040.47;;;6.45;100.00
32033;BME280;31720;52.638;9.216;2024-03-02T06:18:41;100038.03;;;6.42;100.00
32033;BME280;31720;52.638;9.216;2024-03-02T06:21:43;100038.03;;;6.42;100.00
32033;BME280;31720;52.638;9.216;2024-03-02T06:24:44;100043.09;;;6.45;100.00
32033;BME280;31720;52.638;9.216;2024-03-02T06:27:47;100044.72;;;6.47;100.00
32033;BME280;31720;52.638;9.216;2024-03-02T06:30:48;100053.38;;;6.48;100.00
32033;BME280;31720;52.638;9.216;2024-03-02T06:33:49;100052.31;;;6.52;100.00
32033;BME280;31720;52.638;9.216;2024-03-02T06:36:51;100049.72;;;6.52;100.00
32033;BME280;31720;52.638;9.216;2024-03-02T06:39:52;100059.22;;;6.53;100.00
32033;BME280;31720;52.638;9.216;2024-03-02T06:42:55;100067.16;;;6.51;100.00
32033;BME280;31720;52.638;9.216;2024-03-02T06:45:56;100058.38;;;6.52;100.00
32033;BME280;31720;52.638;9.216;2024-03-02T06:48:57;100067.00;;;6.54;100.00
32033;BME280;31720;52.638;9.216;2024-03-02T06:51:59;100060.06;;;6.53;100.00
32033;BME280;31720;52.638;9.216;2024-03-02T06:55:00;100071.09;;;6.60;100.00
32033;BME280;31720;52.638;9.216;2024-03-02T06:58:03;100069.63;;;6.72;100.00
32033;BME280;31720;52.638;9.216;2024-03-02T07:01:05;100075.66;;;6.74;100.00
32033;BME280;31720;52.638;9.216;2024-03-02T07:04:06;100069.97;;;6.83;100.00
32033;BME280;31720;52.638;9.216;2024-03-02T07:07:07;100067.84;;;6.91;100.00
32033;BME280;31720;52.638;9.216;2024-03-02T07:10:09;100074.28;;;7.01;100.00
32033;BME280;31720;52.638;9.216;2024-03-02T07:13:11;100064.84;;;7.16;100.00
32033;BME280;31720;52.638;9.216;2024-03-02T07:16:13;100068.53;;;7.29;100.00
32033;BME280;31720;52.638;9.216;2024-03-02T07:19:28;100069.09;;;7.36;100.00
32033;BME280;31720;52.638;9.216;2024-03-02T07:22:29;100071.13;;;7.47;100.00
32033;BME280;31720;52.638;9.216;2024-03-02T07:25:31;100067.22;;;7.55;100.00
32033;BME280;31720;52.638;9.216;2024-03-02T07:28:33;100072.47;;;7.71;100.00
32033;BME280;31720;52.638;9.216;2024-03-02T07:31:35;100077.47;;;7.76;100.00
32033;BME280;31720;52.638;9.216;2024-03-02T07:34:36;100081.72;;;7.94;100.00
32033;BME280;31720;52.638;9.216;2024-03-02T07:37:38;100090.69;;;8.06;100.00
32033;BME280;31720;52.638;9.216;2024-03-02T07:40:39;100095.53;;;8.13;100.00
32033;BME280;31720;52.638;9.216;2024-03-02T07:43:42;100087.25;;;8.21;100.00
32033;BME280;31720;52.638;9.216;2024-03-02T07:46:44;100083.97;;;8.33;100.00
32033;BME280;31720;52.638;9.216;2024-03-02T07:49:46;100094.47;;;8.49;100.00
32033;BME280;31720;52.638;9.216;2024-03-02T07:52:47;100101.41;;;8.50;100.00
32033;BME280;31720;52.638;9.216;2024-03-02T07:55:50;100099.22;;;8.58;100.00
32033;BME280;31720;52.638;9.216;2024-03-02T07:58:52;100095.47;;;8.62;100.00
32033;BME280;31720;52.638;9.216;2024-03-02T08:01:54;100090.16;;;8.64;100.00
32033;BME280;31720;52.638;9.216;2024-03-02T08:04:56;100090.66;;;8.71;100.00
32033;BME280;31720;52.638;9.216;2024-03-02T08:07:57;100093.69;;;8.79;100.00
32033;BME280;31720;52.638;9.216;2024-03-02T08:10:59;100096.53;;;8.90;100.00
32033;BME280;31720;52.638;9.216;2024-03-02T08:14:01;100098.72;;;8.98;100.00
32033;BME280;31720;52.638;9.216;2024-03-02T08:17:03;100096.38;;;9.09;100.00
32033;BME280;31720;52.638;9.216;2024-03-02T08:20:10;100097.88;;;9.13;100.00
32033;BME280;31720;52.638;9.216;2024-03-02T08:23:12;100097.59;;;9.18;100.00
32033;BME280;31720;52.638;9.216;2024-03-02T08:26:13;100106.03;;;9.23;100.00
32033;BME280;31720;52.638;9.216;2024-03-02T08:29:16;100102.31;;;9.27;100.00
32033;BME280;31720;52.638;9.216;2024-03-02T08:32:17;100108.97;;;9.32;100.00
32033;BME280;31720;52.638;9.216;2024-03-02T08:35:19;100116.56;;;9.37;100.00
32033;BME280;31720;52.638;9.216;2024-03-02T08:38:22;100114.97;;;9.34;100.00
32033;BME280;31720;52.638;9.216;2024-03-02T08:41:24;100119.88;;;9.40;100.00
32033;BME280;31720;52.638;9.216;2024-03-02T08:44:26;100124.63;;;9.48;100.00
32033;BME280;31720;52.638;9.216;2024-03-02T08:47:28;100116.97;;;9.45;100.00
32033;BME280;31720;52.638;9.216;2024-03-02T08:50:29;100118.66;;;9.46;100.00
32033;BME280;31720;52.638;9.216;2024-03-02T08:53:30;100118.44;;;9.49;100.00
32033;BME280;31720;52.638;9.216;2024-03-02T08:56:32;100127.00;;;9.53;100.00
32033;BME280;31720;52.638;9.216;2024-03-02T08:59:34;100124.31;;;9.54;100.00
32033;BME280;31720;52.638;9.216;2024-03-02T09:02:36;100123.53;;;9.52;100.00
32033;BME280;31720;52.638;9.216;2024-03-02T09:05:37;100124.75;;;9.47;100.00
32033;BME280;31720;52.638;9.216;2024-03-02T09:08:39;100120.59;;;9.43;100.00
32033;BME280;31720;52.638;9.216;2024-03-02T09:11:40;100131.19;;;9.41;100.00
32033;BME280;31720;52.638;9.216;2024-03-02T09:14:43;100126.97;;;9.38;100.00
32033;BME280;31720;52.638;9.216;2024-03-02T09:17:44;100130.44;;;9.39;100.00
32033;BME280;31720;52.638;9.216;2024-03-02T09:20:45;100140.84;;;9.40;100.00
32033;BME280;31720;52.638;9.216;2024-03-02T09:23:47;100142.59;;;9.40;100.00
32033;BME280;31720;52.638;9.216;2024-03-02T09:26:48;100142.25;;;9.46;100.00
32033;BME280;31720;52.638;9.216;2024-03-02T09:29:51;100137.47;;;9.53;100.00
32033;BME280;31720;52.638;9.216;2024-03-02T09:32:52;100140.31;;;9.50;100.00
32033;BME280;31720;52.638;9.216;2024-03-02T09:35:53;100141.22;;;9.49;100.00
32033;BME280;31720;52.638;9.216;2024-03-02T09:38:55;100148.81;;;9.53;100.00
32033;BME280;31720;52.638;9.216;2024-03-02T09:41:57;100136.09;;;9.61;100.00
32033;BME280;31720;52.638;9.216;2024-03-02T09:45:00;100143.53;;;9.69;100.00
32033;BME280;31720;52.638;9.216;2024-03-02T09:48:03;100149.34;;;9.74;100.00
32033;BME280;31720;52.638;9.216;2024-03-02T09:51:05;100148.78;;;9.83;100.00
32033;BME280;31720;52.638;9.216;2024-03-02T09:54:07;100143.00;;;9.93;100.00
32033;BME280;31720;52.638;9.216;2024-03-02T09:57:09;100133.63;;;10.03;100.00
32033;BME280;31720;52.638;9.216;2024-03-02T10:00:13;100145.06;;;10.16;100.00
32033;BME280;31720;52.638;9.216;2024-03-02T10:03:15;100149.69;;;10.27;100.00
32033;BME280;31720;52.638;9.216;2024-03-02T10:06:21;100146.56;;;10.49;100.00
32033;BME280;31720;52.638;9.216;2024-03-02T10:09:27;100147.13;;;10.68;100.00
32033;BME280;31720;52.638;9.216;2024-03-02T10:12:28;100147.38;;;10.78;100.00
32033;BME280;31720;52.638;9.216;2024-03-02T10:15:31;100150.13;;;10.89;100.00
32033;BME280;31720;52.638;9.216;2024-03-02T10:18:32;100138.50;;;10.93;100.00
32033;BME280;31720;52.638;9.216;2024-03-02T10:21:33;100139.50;;;11.05;100.00
32033;BME280;31720;52.638;9.216;2024-03-02T10:24:36;100146.78;;;11.14;100.00
32033;BME280;31720;52.638;9.216;2024-03-02T10:27:39;100145.34;;;11.23;100.00
32033;BME280;31720;52.638;9.216;2024-03-02T10:30:42;100149.22;;;11.30;100.00
32033;BME280;31720;52.638;9.216;2024-03-02T10:33:44;100136.19;;;11.28;99.97
32033;BME280;31720;52.638;9.216;2024-03-02T10:36:45;100147.91;;;11.37;100.00
32033;BME280;31720;52.638;9.216;2024-03-02T10:39:46;100141.03;;;11.34;99.77
32033;BME280;31720;52.638;9.216;2024-03-02T10:42:49;100149.78;;;11.35;96.10
32033;BME280;31720;52.638;9.216;2024-03-02T10:45:52;100140.53;;;11.42;97.67
32033;BME280;31720;52.638;9.216;2024-03-02T10:48:55;100144.34;;;11.51;98.18
32033;BME280;31720;52.638;9.216;2024-03-02T10:51:59;100142.97;;;11.58;96.89
32033;BME280;31720;52.638;9.216;2024-03-02T10:55:00;100142.66;;;11.62;96.13
32033;BME280;31720;52.638;9.216;2024-03-02T10:58:06;100140.66;;;11.53;96.53
32033;BME280;31720;52.638;9.216;2024-03-02T11:01:11;100133.63;;;11.66;94.92
32033;BME280;31720;52.638;9.216;2024-03-02T11:04:15;100129.81;;;11.58;96.04
32033;BME280;31720;52.638;9.216;2024-03-02T11:07:18;100135.31;;;11.67;97.22
32033;BME280;31720;52.638;9.216;2024-03-02T11:10:22;100134.94;;;11.86;95.68
32033;BME280;31720;52.638;9.216;2024-03-02T11:13:27;100140.84;;;11.90;94.06
32033;BME280;31720;52.638;9.216;2024-03-02T11:16:34;100142.41;;;11.92;92.93
32033;BME280;31720;52.638;9.216;2024-03-02T11:19:37;100148.00;;;12.01;95.04
32033;BME280;31720;52.638;9.216;2024-03-02T11:22:39;100152.44;;;12.00;94.76
32033;BME280;31720;52.638;9.216;2024-03-02T11:25:41;100145.78;;;12.07;94.62
32033;BME280;31720;52.638;9.216;2024-03-02T11:28:42;100150.19;;;12.19;95.39
32033;BME280;31720;52.638;9.216;2024-03-02T11:32:00;100157.03;;;12.35;94.36
32033;BME280;31720;52.638;9.216;2024-03-02T11:35:02;100147.13;;;12.38;93.82
32033;BME280;31720;52.638;9.216;2024-03-02T11:38:04;100152.16;;;12.54;90.81
32033;BME280;31720;52.638;9.216;2024-03-02T11:41:07;100146.41;;;12.73;90.87
32033;BME280;31720;52.638;9.216;2024-03-02T11:44:09;100140.97;;;12.87;88.75
32033;BME280;31720;52.638;9.216;2024-03-02T11:47:14;100142.81;;;12.98;91.13
32033;BME280;31720;52.638;9.216;2024-03-02T11:50:28;100148.25;;;13.08;87.69
32033;BME280;31720;52.638;9.216;2024-03-02T11:53:30;100144.53;;;13.23;90.42
32033;BME280;31720;52.638;9.216;2024-03-02T11:56:33;100136.66;;;13.34;87.40
32033;BME280;31720;52.638;9.216;2024-03-02T11:59:35;100129.91;;;13.54;87.02
32033;BME280;31720;52.638;9.216;2024-03-02T12:02:37;100132.09;;;13.71;84.79
32033;BME280;31720;52.638;9.216;2024-03-02T12:05:42;100129.00;;;13.78;81.44
32033;BME280;31720;52.638;9.216;2024-03-02T12:08:44;100126.38;;;14.00;81.02
32033;BME280;31720;52.638;9.216;2024-03-02T12:11:45;100126.50;;;14.10;81.43
32033;BME280;31720;52.638;9.216;2024-03-02T12:14:51;100124.69;;;14.33;79.57
32033;BME280;31720;52.638;9.216;2024-03-02T12:17:54;100121.22;;;14.55;79.16
32033;BME280;31720;52.638;9.216;2024-03-02T12:20:56;100117.47;;;14.57;77.33
32033;BME280;31720;52.638;9.216;2024-03-02T12:23:58;100120.81;;;14.82;77.09
32033;BME280;31720;52.638;9.216;2024-03-02T12:27:00;100111.69;;;15.07;76.93
32033;BME280;31720;52.638;9.216;2024-03-02T12:30:01;100111.25;;;15.02;74.19
32033;BME280;31720;52.638;9.216;2024-03-02T12:33:06;100107.25;;;15.07;75.03
32033;BME280;31720;52.638;9.216;2024-03-02T12:36:09;100109.94;;;15.28;73.76
32033;BME280;31720;52.638;9.216;2024-03-02T12:39:12;100103.88;;;15.37;71.52
32033;BME280;31720;52.638;9.216;2024-03-02T12:42:13;100098.78;;;15.45;70.25
32033;BME280;31720;52.638;9.216;2024-03-02T12:45:15;100092.81;;;15.53;68.75
32033;BME280;31720;52.638;9.216;2024-03-02T12:48:25;100095.53;;;15.42;71.34
32033;BME280;31720;52.638;9.216;2024-03-02T12:51:26;100092.25;;;15.50;71.21
32033;BME280;31720;52.638;9.216;2024-03-02T12:54:28;100090.44;;;15.50;70.41
32033;BME280;31720;52.638;9.216;2024-03-02T12:57:30;100091.47;;;15.59;69.05
32033;BME280;31720;52.638;9.216;2024-03-02T13:00:32;100090.19;;;15.74;70.53
32033;BME280;31720;52.638;9.216;2024-03-02T13:03:37;100086.84;;;15.72;68.10
32033;BME280;31720;52.638;9.216;2024-03-02T13:06:39;100084.69;;;15.66;68.10
32033;BME280;31720;52.638;9.216;2024-03-02T13:09:41;100077.00;;;15.84;65.88
32033;BME280;31720;52.638;9.216;2024-03-02T13:12:42;100091.66;;;16.18;68.42
32033;BME280;31720;52.638;9.216;2024-03-02T13:15:44;100076.63;;;16.29;65.48
32033;BME280;31720;52.638;9.216;2024-03-02T13:18:46;100082.13;;;16.56;66.95
32033;BME280;31720;52.638;9.216;2024-03-02T13:21:48;100082.47;;;16.72;64.60
32033;BME280;31720;52.638;9.216;2024-03-02T13:24:51;100079.13;;;16.80;63.53
32033;BME280;31720;52.638;9.216;2024-03-02T13:27:54;100079.91;;;16.61;63.74
32033;BME280;31720;52.638;9.216;2024-03-02T13:30:55;100077.53;;;16.58;63.52
32033;BME280;31720;52.638;9.216;2024-03-02T13:33:58;100069.88;;;16.65;63.87
32033;BME280;31720;52.638;9.216;2024-03-02T13:37:00;100066.19;;;16.37;63.44
32033;BME280;31720;52.638;9.216;2024-03-02T13:40:02;100076.03;;;16.25;64.53
32033;BME280;31720;52.638;9.216;2024-03-02T13:43:05;100077.50;;;16.48;64.18
32033;BME280;31720;52.638;9.216;2024-03-02T13:46:06;100069.03;;;16.14;63.29
32033;BME280;31720;52.638;9.216;2024-03-02T13:49:09;100066.28;;;15.85;64.49
32033;BME280;31720;52.638;9.216;2024-03-02T13:52:10;100072.06;;;16.00;64.80
32033;BME280;31720;52.638;9.216;2024-03-02T13:55:13;100072.34;;;16.57;63.87
32033;BME280;31720;52.638;9.216;2024-03-02T13:58:15;100068.25;;;16.83;62.98
32033;BME280;31720;52.638;9.216;2024-03-02T14:01:17;100058.75;;;16.81;62.50
32033;BME280;31720;52.638;9.216;2024-03-02T14:04:20;100063.66;;;16.85;62.18
32033;BME280;31720;52.638;9.216;2024-03-02T14:07:21;100042.25;;;16.96;63.50
32033;BME280;31720;52.638;9.216;2024-03-02T14:10:23;100048.81;;;16.92;62.31
32033;BME280;31720;52.638;9.216;2024-03-02T14:13:24;100047.56;;;16.77;61.93
32033;BME280;31720;52.638;9.216;2024-03-02T14:16:26;100045.59;;;16.79;62.27
32033;BME280;31720;52.638;9.216;2024-03-02T14:19:29;100053.38;;;16.61;63.00
32033;BME280;31720;52.638;9.216;2024-03-02T14:22:30;100055.03;;;16.53;63.82
32033;BME280;31720;52.638;9.216;2024-03-02T14:25:32;100050.28;;;16.37;63.58
32033;BME280;31720;52.638;9.216;2024-03-02T14:28:34;100047.84;;;16.24;65.34
32033;BME280;31720;52.638;9.216;2024-03-02T14:31:35;100046.69;;;16.07;64.75
32033;BME280;31720;52.638;9.216;2024-03-02T14:34:37;100040.63;;;16.26;65.24
32033;BME280;31720;52.638;9.216;2024-03-02T14:37:39;100041.66;;;16.04;65.33
32033;BME280;31720;52.638;9.216;2024-03-02T14:40:40;100043.66;;;15.81;66.77
32033;BME280;31720;52.638;9.216;2024-03-02T14:43:43;100037.91;;;15.55;67.76
32033;BME280;31720;52.638;9.216;2024-03-02T14:46:46;100036.00;;;15.36;68.38
32033;BME280;31720;52.638;9.216;2024-03-02T14:49:49;100025.84;;;15.41;68.45
32033;BME280;31720;52.638;9.216;2024-03-02T14:52:50;100042.97;;;15.16;68.99
32033;BME280;31720;52.638;9.216;2024-03-02T14:55:52;100042.50;;;15.11;70.01
32033;BME280;31720;52.638;9.216;2024-03-02T14:58:53;100048.13;;;14.97;70.45
32033;BME280;31720;52.638;9.216;2024-03-02T15:01:54;100045.56;;;14.75;72.11
32033;BME280;31720;52.638;9.216;2024-03-02T15:04:57;100044.94;;;14.82;72.40
32033;BME280;31720;52.638;9.216;2024-03-02T15:07:58;100039.47;;;14.95;72.04
32033;BME280;31720;52.638;9.216;2024-03-02T15:11:02;100037.47;;;14.87;71.00
32033;BME280;31720;52.638;9.216;2024-03-02T15:14:04;100036.75;;;14.85;71.91
32033;BME280;31720;52.638;9.216;2024-03-02T15:17:05;100038.34;;;14.77;73.39
32033;BME280;31720;52.638;9.216;2024-03-02T15:20:08;100036.03;;;14.40;73.71
32033;BME280;31720;52.638;9.216;2024-03-02T15:23:10;100037.31;;;14.45;74.28
32033;BME280;31720;52.638;9.216;2024-03-02T15:26:11;100031.81;;;14.37;74.98
32033;BME280;31720;52.638;9.216;2024-03-02T15:29:13;100033.75;;;14.35;74.52
32033;BME280;31720;52.638;9.216;2024-03-02T15:32:14;100025.69;;;14.26;75.42
32033;BME280;31720;52.638;9.216;2024-03-02T15:35:17;100023.56;;;14.19;74.19
32033;BME280;31720;52.638;9.216;2024-03-02T15:38:18;100026.81;;;14.12;74.87
32033;BME280;31720;52.638;9.216;2024-03-02T15:41:19;100019.97;;;14.09;73.75
32033;BME280;31720;52.638;9.216;2024-03-02T15:44:21;100024.88;;;14.03;76.16
32033;BME280;31720;52.638;9.216;2024-03-02T15:47:23;100025.97;;;14.11;73.41
32033;BME280;31720;52.638;9.216;2024-03-02T15:50:26;100032.81;;;14.03;76.19
32033;BME280;31720;52.638;9.216;2024-03-02T15:53:27;100023.44;;;13.99;75.70